sensor_id;sensor_type;location;lat;lon;timestamp;temperature;humidity
52765;DHT22;38650;44.536;18.664;2022-12-18T08:19:22;3.30;99.90
52765;DHT22;38650;44.536;18.664;2022-12-18T08:21:47;4.00;99.90
52765;DHT22;38650;44.536;18.664;2022-12-18T08:24:13;5.40;99.90
52765;DHT22;38650;44.536;18.664;2022-12-18T08:26:39;5.50;99.90
52765;DHT22;38650;44.536;18.664;2022-12-18T08:29:04;5.50;99.90
52765;DHT22;38650;44.536;18.664;2022-12-18T08:31:30;6.30;99.90
52765;DHT22;38650;44.536;18.664;2022-12-18T08:33:56;6.60;99.90
52765;DHT22;38650;44.536;18.664;2022-12-18T08:36:23;6.40;99.90
52765;DHT22;38650;44.536;18.664;2022-12-18T08:38:49;6.10;99.90
52765;DHT22;38650;44.536;18.664;2022-12-18T08:41:16;6.60;99.90
52765;DHT22;38650;44.536;18.664;2022-12-18T08:43:42;7.70;92.60
52765;DHT22;38650;44.536;18.664;2022-12-18T08:46:31;7.30;91.70
52765;DHT22;38650;44.536;18.664;2022-12-18T08:48:57;6.90;95.00
52765;DHT22;38650;44.536;18.664;2022-12-18T08:51:23;7.20;99.80
52765;DHT22;38650;44.536;18.664;2022-12-18T08:53:49;7.80;92.30
52765;DHT22;38650;44.536;18.664;2022-12-18T08:56:15;8.20;87.90
52765;DHT22;38650;44.536;18.664;2022-12-18T08:58:41;8.40;78.00
52765;DHT22;38650;44.536;18.664;2022-12-18T09:01:09;8.20;71.90
52765;DHT22;38650;44.536;18.664;2022-12-18T09:03:35;8.20;71.70
52765;DHT22;38650;44.536;18.664;2022-12-18T09:06:01;8.30;72.00
52765;DHT22;38650;44.536;18.664;2022-12-18T09:08:27;8.00;69.20
52765;DHT22;38650;44.536;18.664;2022-12-18T09:10:53;7.90;70.40
52765;DHT22;38650;44.536;18.664;2022-12-18T09:13:18;8.00;71.30
52765;DHT22;38650;44.536;18.664;2022-12-18T09:15:46;8.30;71.90
52765;DHT22;38650;44.536;18.664;2022-12-18T09:18:14;8.70;69.40
52765;DHT22;38650;44.536;18.664;2022-12-18T09:20:40;9.20;66.80
52765;DHT22;38650;44.536;18.664;2022-12-18T09:23:06;9.40;62.50
52765;DHT22;38650;44.536;18.664;2022-12-18T09:25:33;9.70;60.80
52765;DHT22;38650;44.536;18.664;2022-12-18T09:28:09;10.10;59.90
52765;DHT22;38650;44.536;18.664;2022-12-18T09:30:41;10.30;56.60
52765;DHT22;38650;44.536;18.664;2022-12-18T09:33:07;10.10;56.30
52765;DHT22;38650;44.536;18.664;2022-12-18T09:35:35;10.10;58.30
52765;DHT22;38650;44.536;18.664;2022-12-18T09:38:01;10.40;57.50
52765;DHT22;38650;44.536;18.664;2022-12-18T09:40:30;10.60;55.00
52765;DHT22;38650;44.536;18.664;2022-12-18T09:43:00;10.70;56.60
52765;DHT22;38650;44.536;18.664;2022-12-18T09:45:30;10.90;55.00
52765;DHT22;38650;44.536;18.664;2022-12-18T09:48:04;11.00;55.30
52765;DHT22;38650;44.536;18.664;2022-12-18T09:50:34;11.20;54.70
52765;DHT22;38650;44.536;18.664;2022-12-18T09:53:06;11.20;54.70
52765;DHT22;38650;44.536;18.664;2022-12-18T09:55:44;11.50;54.20
52765;DHT22;38650;44.536;18.664;2022-12-18T10:00:38;11.20;52.10
52765;DHT22;38650;44.536;18.664;2022-12-18T10:03:12;10.90;53.40
52765;DHT22;38650;44.536;18.664;2022-12-18T10:08:17;10.70;53.70
52765;DHT22;38650;44.536;18.664;2022-12-18T10:11:46;10.70;53.20
52765;DHT22;38650;44.536;18.664;2022-12-18T10:13:52;10.60;53.70
52765;DHT22;38650;44.536;18.664;2022-12-18T10:21:34;9.90;53.90
52765;DHT22;38650;44.536;18.664;2022-12-18T10:27:14;9.80;54.30
52765;DHT22;38650;44.536;18.664;2022-12-18T10:29:44;9.50;54.00
52765;DHT22;38650;44.536;18.664;2022-12-18T10:32:24;9.50;55.40
52765;DHT22;38650;44.536;18.664;2022-12-18T10:34:52;9.50;54.60
52765;DHT22;38650;44.536;18.664;2022-12-18T10:37:21;9.40;55.20
52765;DHT22;38650;44.536;18.664;2022-12-18T10:40:11;9.30;55.80
52765;DHT22;38650;44.536;18.664;2022-12-18T10:42:38;9.20;55.60
52765;DHT22;38650;44.536;18.664;2022-12-18T10:45:14;9.20;53.60
52765;DHT22;38650;44.536;18.664;2022-12-18T10:47:48;8.90;55.10
52765;DHT22;38650;44.536;18.664;2022-12-18T10:52:58;9.00;55.10
52765;DHT22;38650;44.536;18.664;2022-12-18T10:55:29;9.20;54.70
52765;DHT22;38650;44.536;18.664;2022-12-18T10:58:26;9.40;53.60
52765;DHT22;38650;44.536;18.664;2022-12-18T11:01:08;9.60;53.70
52765;DHT22;38650;44.536;18.664;2022-12-18T11:03:59;10.00;53.10
52765;DHT22;38650;44.536;18.664;2022-12-18T11:06:25;10.50;51.80
52765;DHT22;38650;44.536;18.664;2022-12-18T11:09:05;10.60;51.90
52765;DHT22;38650;44.536;18.664;2022-12-18T11:11:32;10.90;49.50
52765;DHT22;38650;44.536;18.664;2022-12-18T11:14:07;10.90;50.80
52765;DHT22;38650;44.536;18.664;2022-12-18T11:16:43;10.70;50.60
52765;DHT22;38650;44.536;18.664;2022-12-18T11:19:21;10.40;52.60
52765;DHT22;38650;44.536;18.664;2022-12-18T11:21:47;10.70;53.40
52765;DHT22;38650;44.536;18.664;2022-12-18T11:24:39;10.80;51.90
52765;DHT22;38650;44.536;18.664;2022-12-18T11:27:06;11.20;49.60
52765;DHT22;38650;44.536;18.664;2022-12-18T11:29:41;11.40;47.80
52765;DHT22;38650;44.536;18.664;2022-12-18T11:32:39;11.40;49.30
52765;DHT22;38650;44.536;18.664;2022-12-18T11:37:51;12.00;47.70
52765;DHT22;38650;44.536;18.664;2022-12-18T11:40:22;12.10;46.90
52765;DHT22;38650;44.536;18.664;2022-12-18T11:43:02;12.30;47.60
52765;DHT22;38650;44.536;18.664;2022-12-18T11:45:44;12.30;45.60
52765;DHT22;38650;44.536;18.664;2022-12-18T11:48:22;12.50;46.70
52765;DHT22;38650;44.536;18.664;2022-12-18T11:50:57;12.50;45.30
52765;DHT22;38650;44.536;18.664;2022-12-18T11:53:25;12.40;43.50
52765;DHT22;38650;44.536;18.664;2022-12-18T11:56:29;12.40;44.00
52765;DHT22;38650;44.536;18.664;2022-12-18T11:59:16;12.40;44.90
52765;DHT22;38650;44.536;18.664;2022-12-18T12:01:55;12.60;45.70
52765;DHT22;38650;44.536;18.664;2022-12-18T12:07:12;12.60;45.60
52765;DHT22;38650;44.536;18.664;2022-12-18T12:18:09;12.70;45.70
52765;DHT22;38650;44.536;18.664;2022-12-18T12:26:17;13.20;45.30
52765;DHT22;38650;44.536;18.664;2022-12-18T12:32:11;13.50;43.20
52765;DHT22;38650;44.536;18.664;2022-12-18T12:38:30;13.40;44.00
52765;DHT22;38650;44.536;18.664;2022-12-18T12:40:26;13.50;43.30
52765;DHT22;38650;44.536;18.664;2022-12-18T12:42:59;13.70;42.90
52765;DHT22;38650;44.536;18.664;2022-12-18T12:48:35;13.40;43.60
52765;DHT22;38650;44.536;18.664;2022-12-18T12:51:27;13.30;44.00
52765;DHT22;38650;44.536;18.664;2022-12-18T12:53:54;13.40;44.80
52765;DHT22;38650;44.536;18.664;2022-12-18T12:56:22;13.20;45.50
52765;DHT22;38650;44.536;18.664;2022-12-18T13:01:28;13.10;45.30
52765;DHT22;38650;44.536;18.664;2022-12-18T13:04:23;13.00;46.40
52765;DHT22;38650;44.536;18.664;2022-12-18T13:06:59;13.10;45.40
52765;DHT22;38650;44.536;18.664;2022-12-18T13:09:32;13.10;45.20
52765;DHT22;38650;44.536;18.664;2022-12-18T13:12:12;13.20;44.10
52765;DHT22;38650;44.536;18.664;2022-12-18T13:15:21;13.10;45.50
52765;DHT22;38650;44.536;18.664;2022-12-18T13:17:47;12.60;48.30
52765;DHT22;38650;44.536;18.664;2022-12-18T13:20:14;12.50;46.00
52765;DHT22;38650;44.536;18.664;2022-12-18T13:22:46;12.40;45.30
52765;DHT22;38650;44.536;18.664;2022-12-18T13:30:45;12.30;46.30
52765;DHT22;38650;44.536;18.664;2022-12-18T13:35:51;12.10;47.20
52765;DHT22;38650;44.536;18.664;2022-12-18T13:38:37;11.60;50.60
52765;DHT22;38650;44.536;18.664;2022-12-18T13:43:54;10.40;51.60
52765;DHT22;38650;44.536;18.664;2022-12-18T13:46:30;10.10;52.20
52765;DHT22;38650;44.536;18.664;2022-12-18T13:51:42;10.50;51.40
52765;DHT22;38650;44.536;18.664;2022-12-18T13:56:47;9.90;54.00
52765;DHT22;38650;44.536;18.664;2022-12-18T13:59:22;9.50;54.90
52765;DHT22;38650;44.536;18.664;2022-12-18T14:01:56;9.20;55.20
52765;DHT22;38650;44.536;18.664;2022-12-18T14:04:35;9.00;56.60
52765;DHT22;38650;44.536;18.664;2022-12-18T14:07:04;8.80;57.70
52765;DHT22;38650;44.536;18.664;2022-12-18T14:09:35;8.50;58.00
52765;DHT22;38650;44.536;18.664;2022-12-18T14:12:02;8.20;59.30
52765;DHT22;38650;44.536;18.664;2022-12-18T14:14:48;8.00;61.10
52765;DHT22;38650;44.536;18.664;2022-12-18T14:17:16;7.70;66.50
52765;DHT22;38650;44.536;18.664;2022-12-18T14:19:44;7.60;70.90
52765;DHT22;38650;44.536;18.664;2022-12-18T14:22:21;7.20;83.90
52765;DHT22;38650;44.536;18.664;2022-12-18T14:27:37;6.80;99.80
52765;DHT22;38650;44.536;18.664;2022-12-18T14:30:27;6.60;99.90
52765;DHT22;38650;44.536;18.664;2022-12-18T14:35:36;6.40;99.90
52765;DHT22;38650;44.536;18.664;2022-12-18T14:38:28;6.40;99.90
52765;DHT22;38650;44.536;18.664;2022-12-18T14:41:03;6.40;99.90
52765;DHT22;38650;44.536;18.664;2022-12-18T14:43:34;6.50;99.90
52765;DHT22;38650;44.536;18.664;2022-12-18T14:46:00;6.50;99.90
52765;DHT22;38650;44.536;18.664;2022-12-18T14:51:05;6.40;99.90
52765;DHT22;38650;44.536;18.664;2022-12-18T14:53:44;6.00;99.90
52765;DHT22;38650;44.536;18.664;2022-12-18T14:56:25;6.20;99.90
52765;DHT22;38650;44.536;18.664;2022-12-18T14:58:59;6.20;99.90
52765;DHT22;38650;44.536;18.664;2022-12-18T15:03:58;6.10;99.90
52765;DHT22;38650;44.536;18.664;2022-12-18T15:06:32;6.00;99.90
52765;DHT22;38650;44.536;18.664;2022-12-18T15:09:02;6.00;99.90
52765;DHT22;38650;44.536;18.664;2022-12-18T15:17:03;5.80;99.90
52765;DHT22;38650;44.536;18.664;2022-12-18T15:19:37;5.80;99.90
52765;DHT22;38650;44.536;18.664;2022-12-18T15:22:04;5.90;99.90
52765;DHT22;38650;44.536;18.664;2022-12-18T15:24:31;5.80;99.90
52765;DHT22;38650;44.536;18.664;2022-12-18T15:26:58;5.80;99.90
52765;DHT22;38650;44.536;18.664;2022-12-18T15:29:24;5.80;99.90
52765;DHT22;38650;44.536;18.664;2022-12-18T15:32:04;6.00;99.90
52765;DHT22;38650;44.536;18.664;2022-12-18T15:34:31;6.20;99.90
52765;DHT22;38650;44.536;18.664;2022-12-18T15:36:59;6.20;99.90
52765;DHT22;38650;44.536;18.664;2022-12-18T15:39:25;6.00;99.90
52765;DHT22;38650;44.536;18.664;2022-12-18T15:41:51;5.90;99.90
52765;DHT22;38650;44.536;18.664;2022-12-18T15:44:35;5.80;99.90
52765;DHT22;38650;44.536;18.664;2022-12-18T15:47:01;5.70;99.90
52765;DHT22;38650;44.536;18.664;2022-12-18T15:49:27;5.70;99.90
52765;DHT22;38650;44.536;18.664;2022-12-18T15:51:58;5.50;99.90
52765;DHT22;38650;44.536;18.664;2022-12-18T15:54:24;5.30;99.90
52765;DHT22;38650;44.536;18.664;2022-12-18T15:57:12;5.10;99.90
52765;DHT22;38650;44.536;18.664;2022-12-18T15:59:51;5.00;99.90
52765;DHT22;38650;44.536;18.664;2022-12-18T16:02:19;4.90;99.90
52765;DHT22;38650;44.536;18.664;2022-12-18T16:04:45;5.00;99.90
52765;DHT22;38650;44.536;18.664;2022-12-18T16:07:12;5.00;99.90
52765;DHT22;38650;44.536;18.664;2022-12-18T16:09:37;4.80;99.90
52765;DHT22;38650;44.536;18.664;2022-12-18T16:12:05;4.60;99.90
52765;DHT22;38650;44.536;18.664;2022-12-18T16:14:32;4.50;99.90
52765;DHT22;38650;44.536;18.664;2022-12-18T16:17:00;4.40;99.90
52765;DHT22;38650;44.536;18.664;2022-12-18T16:19:27;4.40;99.90
52765;DHT22;38650;44.536;18.664;2022-12-18T16:21:55;4.40;99.90
52765;DHT22;38650;44.536;18.664;2022-12-18T16:24:27;4.50;99.90
52765;DHT22;38650;44.536;18.664;2022-12-18T16:26:53;4.60;99.90
52765;DHT22;38650;44.536;18.664;2022-12-18T16:29:20;4.80;99.90
52765;DHT22;38650;44.536;18.664;2022-12-18T16:31:50;5.00;99.90
52765;DHT22;38650;44.536;18.664;2022-12-18T16:34:24;5.10;99.90
52765;DHT22;38650;44.536;18.664;2022-12-18T16:37:04;5.10;99.90
52765;DHT22;38650;44.536;18.664;2022-12-18T16:39:30;4.80;99.90
52765;DHT22;38650;44.536;18.664;2022-12-18T16:41:57;4.50;99.90
52765;DHT22;38650;44.536;18.664;2022-12-18T16:44:23;4.40;99.90
52765;DHT22;38650;44.536;18.664;2022-12-18T16:46:49;4.30;99.90
52765;DHT22;38650;44.536;18.664;2022-12-18T16:49:16;4.30;99.90
52765;DHT22;38650;44.536;18.664;2022-12-18T16:51:42;4.40;99.90
52765;DHT22;38650;44.536;18.664;2022-12-18T16:54:09;4.40;99.90
52765;DHT22;38650;44.536;18.664;2022-12-18T16:56:35;4.30;99.90
52765;DHT22;38650;44.536;18.664;2022-12-18T16:59:02;4.20;99.90
52765;DHT22;38650;44.536;18.664;2022-12-18T17:01:29;4.30;99.90
52765;DHT22;38650;44.536;18.664;2022-12-18T17:04:00;4.40;99.90
52765;DHT22;38650;44.536;18.664;2022-12-18T17:06:27;4.50;99.90
52765;DHT22;38650;44.536;18.664;2022-12-18T17:09:02;4.30;99.90
52765;DHT22;38650;44.536;18.664;2022-12-18T17:11:29;4.30;99.90
52765;DHT22;38650;44.536;18.664;2022-12-18T17:13:55;4.40;99.90
52765;DHT22;38650;44.536;18.664;2022-12-18T17:16:22;4.40;99.90
52765;DHT22;38650;44.536;18.664;2022-12-18T17:18:48;4.50;99.90
52765;DHT22;38650;44.536;18.664;2022-12-18T17:21:14;4.70;99.90
52765;DHT22;38650;44.536;18.664;2022-12-18T17:23:41;4.70;99.90
52765;DHT22;38650;44.536;18.664;2022-12-18T17:26:08;4.70;99.90
52765;DHT22;38650;44.536;18.664;2022-12-18T17:28:35;4.60;99.90
52765;DHT22;38650;44.536;18.664;2022-12-18T17:31:02;4.60;99.90
52765;DHT22;38650;44.536;18.664;2022-12-18T17:33:34;4.70;99.90
52765;DHT22;38650;44.536;18.664;2022-12-18T17:36:00;4.70;99.90
52765;DHT22;38650;44.536;18.664;2022-12-18T17:38:25;4.70;99.90
52765;DHT22;38650;44.536;18.664;2022-12-18T17:40:52;4.80;99.90
52765;DHT22;38650;44.536;18.664;2022-12-18T17:43:17;4.80;99.90
52765;DHT22;38650;44.536;18.664;2022-12-18T17:45:43;4.70;99.90
52765;DHT22;38650;44.536;18.664;2022-12-18T17:48:08;4.70;99.90
52765;DHT22;38650;44.536;18.664;2022-12-18T17:50:35;4.70;99.90
52765;DHT22;38650;44.536;18.664;2022-12-18T17:53:01;4.70;99.90
52765;DHT22;38650;44.536;18.664;2022-12-18T17:55:27;4.70;99.90
52765;DHT22;38650;44.536;18.664;2022-12-18T17:57:53;4.70;99.90
52765;DHT22;38650;44.536;18.664;2022-12-18T18:00:19;4.60;99.90
52765;DHT22;38650;44.536;18.664;2022-12-18T18:02:45;4.60;99.90
52765;DHT22;38650;44.536;18.664;2022-12-18T18:05:11;4.60;99.90
52765;DHT22;38650;44.536;18.664;2022-12-18T18:07:38;4.60;99.90
52765;DHT22;38650;44.536;18.664;2022-12-18T18:10:04;4.70;99.90
52765;DHT22;38650;44.536;18.664;2022-12-18T18:12:30;4.60;99.90
52765;DHT22;38650;44.536;18.664;2022-12-18T18:15:14;4.60;99.90
52765;DHT22;38650;44.536;18.664;2022-12-18T18:17:40;4.60;99.90
52765;DHT22;38650;44.536;18.664;2022-12-18T18:20:06;4.50;99.90
52765;DHT22;38650;44.536;18.664;2022-12-18T18:22:32;4.40;99.90
52765;DHT22;38650;44.536;18.664;2022-12-18T18:24:58;4.40;99.90
52765;DHT22;38650;44.536;18.664;2022-12-18T18:27:24;4.30;99.90
52765;DHT22;38650;44.536;18.664;2022-12-18T18:29:50;4.30;99.90
52765;DHT22;38650;44.536;18.664;2022-12-18T18:32:16;4.10;99.90
52765;DHT22;38650;44.536;18.664;2022-12-18T18:34:41;3.90;99.90
52765;DHT22;38650;44.536;18.664;2022-12-18T18:37:08;3.70;99.90
52765;DHT22;38650;44.536;18.664;2022-12-18T18:39:34;3.70;99.90
52765;DHT22;38650;44.536;18.664;2022-12-18T18:42:00;3.60;99.90
52765;DHT22;38650;44.536;18.664;2022-12-18T18:44:25;3.60;99.90
52765;DHT22;38650;44.536;18.664;2022-12-18T18:46:53;3.60;99.90
52765;DHT22;38650;44.536;18.664;2022-12-18T18:49:19;3.70;99.90
52765;DHT22;38650;44.536;18.664;2022-12-18T18:51:44;3.70;99.90
52765;DHT22;38650;44.536;18.664;2022-12-18T18:54:10;3.80;99.90
52765;DHT22;38650;44.536;18.664;2022-12-18T18:56:36;3.70;99.90
52765;DHT22;38650;44.536;18.664;2022-12-18T18:59:02;3.80;99.90
52765;DHT22;38650;44.536;18.664;2022-12-18T19:01:28;3.80;99.90
52765;DHT22;38650;44.536;18.664;2022-12-18T19:03:53;3.80;99.90
52765;DHT22;38650;44.536;18.664;2022-12-18T19:06:25;3.70;99.90
52765;DHT22;38650;44.536;18.664;2022-12-18T19:08:52;3.50;99.90
52765;DHT22;38650;44.536;18.664;2022-12-18T19:11:20;3.50;99.90
52765;DHT22;38650;44.536;18.664;2022-12-18T19:14:13;3.40;99.90
52765;DHT22;38650;44.536;18.664;2022-12-18T19:16:40;3.30;99.90
52765;DHT22;38650;44.536;18.664;2022-12-18T19:19:06;3.20;99.90
52765;DHT22;38650;44.536;18.664;2022-12-18T19:21:33;3.10;99.90
52765;DHT22;38650;44.536;18.664;2022-12-18T19:23:59;3.20;99.90
52765;DHT22;38650;44.536;18.664;2022-12-18T19:26:26;3.20;99.90
52765;DHT22;38650;44.536;18.664;2022-12-18T19:28:52;3.30;99.90
52765;DHT22;38650;44.536;18.664;2022-12-18T19:31:18;3.40;99.90
52765;DHT22;38650;44.536;18.664;2022-12-18T19:33:45;3.40;99.90
52765;DHT22;38650;44.536;18.664;2022-12-18T19:36:23;3.50;99.90
52765;DHT22;38650;44.536;18.664;2022-12-18T19:38:50;3.50;99.90
52765;DHT22;38650;44.536;18.664;2022-12-18T19:41:17;3.50;99.90
52765;DHT22;38650;44.536;18.664;2022-12-18T19:43:43;3.50;99.90
52765;DHT22;38650;44.536;18.664;2022-12-18T19:46:12;3.50;99.90
52765;DHT22;38650;44.536;18.664;2022-12-18T19:48:38;3.50;99.90
52765;DHT22;38650;44.536;18.664;2022-12-18T19:51:10;3.40;99.90
52765;DHT22;38650;44.536;18.664;2022-12-18T19:53:37;3.30;99.90
52765;DHT22;38650;44.536;18.664;2022-12-18T19:56:07;3.30;99.90
52765;DHT22;38650;44.536;18.664;2022-12-18T19:58:33;3.30;99.90
52765;DHT22;38650;44.536;18.664;2022-12-18T20:00:59;3.20;99.90
52765;DHT22;38650;44.536;18.664;2022-12-18T20:03:24;3.20;99.90
52765;DHT22;38650;44.536;18.664;2022-12-18T20:05:50;3.20;99.90
52765;DHT22;38650;44.536;18.664;2022-12-18T20:08:16;3.20;99.90
52765;DHT22;38650;44.536;18.664;2022-12-18T20:10:41;3.20;99.90
52765;DHT22;38650;44.536;18.664;2022-12-18T20:13:09;3.20;99.90
52765;DHT22;38650;44.536;18.664;2022-12-18T20:15:35;3.00;99.90
52765;DHT22;38650;44.536;18.664;2022-12-18T20:18:01;3.00;99.90
52765;DHT22;38650;44.536;18.664;2022-12-18T20:20:27;2.90;99.90
52765;DHT22;38650;44.536;18.664;2022-12-18T20:22:52;2.90;99.90
52765;DHT22;38650;44.536;18.664;2022-12-18T20:25:18;3.00;99.90
52765;DHT22;38650;44.536;18.664;2022-12-18T20:27:44;2.80;99.90
52765;DHT22;38650;44.536;18.664;2022-12-18T20:30:10;2.80;99.90
52765;DHT22;38650;44.536;18.664;2022-12-18T20:32:36;2.80;99.90
52765;DHT22;38650;44.536;18.664;2022-12-18T20:35:02;2.80;99.90
52765;DHT22;38650;44.536;18.664;2022-12-18T20:37:28;2.90;99.90
52765;DHT22;38650;44.536;18.664;2022-12-18T20:39:53;2.80;99.90
52765;DHT22;38650;44.536;18.664;2022-12-18T20:42:19;2.80;99.90
52765;DHT22;38650;44.536;18.664;2022-12-18T20:44:45;2.70;99.90
52765;DHT22;38650;44.536;18.664;2022-12-18T20:47:10;2.80;99.90
52765;DHT22;38650;44.536;18.664;2022-12-18T20:49:36;2.80;99.90
52765;DHT22;38650;44.536;18.664;2022-12-18T20:52:02;2.80;99.90
52765;DHT22;38650;44.536;18.664;2022-12-18T20:54:28;2.80;99.90
52765;DHT22;38650;44.536;18.664;2022-12-18T20:56:54;2.80;99.90
52765;DHT22;38650;44.536;18.664;2022-12-18T20:59:21;2.80;99.90
52765;DHT22;38650;44.536;18.664;2022-12-18T21:01:47;2.80;99.90
52765;DHT22;38650;44.536;18.664;2022-12-18T21:04:14;2.80;99.90
52765;DHT22;38650;44.536;18.664;2022-12-18T21:06:40;2.80;99.90
52765;DHT22;38650;44.536;18.664;2022-12-18T21:09:05;2.80;99.90
52765;DHT22;38650;44.536;18.664;2022-12-18T21:11:32;2.80;99.90
52765;DHT22;38650;44.536;18.664;2022-12-18T21:14:21;2.70;99.90
52765;DHT22;38650;44.536;18.664;2022-12-18T21:16:48;2.70;99.90
52765;DHT22;38650;44.536;18.664;2022-12-18T21:19:20;2.70;99.90
52765;DHT22;38650;44.536;18.664;2022-12-18T21:21:47;2.70;99.90
52765;DHT22;38650;44.536;18.664;2022-12-18T21:24:14;2.70;99.90
52765;DHT22;38650;44.536;18.664;2022-12-18T21:26:41;2.70;99.90
52765;DHT22;38650;44.536;18.664;2022-12-18T21:29:11;2.60;99.90
52765;DHT22;38650;44.536;18.664;2022-12-18T21:31:39;2.50;99.90
52765;DHT22;38650;44.536;18.664;2022-12-18T21:34:06;2.50;99.90
52765;DHT22;38650;44.536;18.664;2022-12-18T21:36:33;2.50;99.90
52765;DHT22;38650;44.536;18.664;2022-12-18T21:38:59;2.50;99.90
52765;DHT22;38650;44.536;18.664;2022-12-18T21:41:26;2.50;99.90
52765;DHT22;38650;44.536;18.664;2022-12-18T21:44:13;2.50;99.90
52765;DHT22;38650;44.536;18.664;2022-12-18T21:46:41;2.50;99.90
52765;DHT22;38650;44.536;18.664;2022-12-18T21:49:09;2.50;99.90
52765;DHT22;38650;44.536;18.664;2022-12-18T21:51:36;2.40;99.90
52765;DHT22;38650;44.536;18.664;2022-12-18T21:54:03;2.30;99.90
52765;DHT22;38650;44.536;18.664;2022-12-18T21:59:32;2.30;99.90
52765;DHT22;38650;44.536;18.664;2022-12-18T22:02:00;2.20;99.90
52765;DHT22;38650;44.536;18.664;2022-12-18T22:04:26;1.90;99.90
52765;DHT22;38650;44.536;18.664;2022-12-18T22:06:53;2.00;99.90
52765;DHT22;38650;44.536;18.664;2022-12-18T22:09:21;2.10;99.90
52765;DHT22;38650;44.536;18.664;2022-12-18T22:11:47;2.10;99.90
52765;DHT22;38650;44.536;18.664;2022-12-18T22:14:14;2.20;99.90
52765;DHT22;38650;44.536;18.664;2022-12-18T22:16:41;2.00;99.90
52765;DHT22;38650;44.536;18.664;2022-12-18T22:19:07;1.90;99.90
52765;DHT22;38650;44.536;18.664;2022-12-18T22:21:38;1.80;99.90
52765;DHT22;38650;44.536;18.664;2022-12-18T22:24:12;1.70;99.90
52765;DHT22;38650;44.536;18.664;2022-12-18T22:26:37;1.80;99.90
52765;DHT22;38650;44.536;18.664;2022-12-18T22:29:04;1.90;99.90
52765;DHT22;38650;44.536;18.664;2022-12-18T22:31:48;1.90;99.90
52765;DHT22;38650;44.536;18.664;2022-12-18T22:34:14;2.00;99.90
52765;DHT22;38650;44.536;18.664;2022-12-18T22:36:42;2.00;99.90
52765;DHT22;38650;44.536;18.664;2022-12-18T22:39:19;2.00;99.90
52765;DHT22;38650;44.536;18.664;2022-12-18T22:41:45;2.00;99.90
52765;DHT22;38650;44.536;18.664;2022-12-18T22:44:11;1.90;99.90
52765;DHT22;38650;44.536;18.664;2022-12-18T22:46:39;1.80;99.90
52765;DHT22;38650;44.536;18.664;2022-12-18T22:49:06;1.80;99.90
52765;DHT22;38650;44.536;18.664;2022-12-18T22:51:34;1.70;99.90
52765;DHT22;38650;44.536;18.664;2022-12-18T22:54:00;1.60;99.90
52765;DHT22;38650;44.536;18.664;2022-12-18T22:56:26;1.50;99.90
52765;DHT22;38650;44.536;18.664;2022-12-18T22:58:51;1.50;99.90
52765;DHT22;38650;44.536;18.664;2022-12-18T23:01:24;1.50;99.90
52765;DHT22;38650;44.536;18.664;2022-12-18T23:03:51;1.60;99.90
52765;DHT22;38650;44.536;18.664;2022-12-18T23:06:18;1.60;99.90
52765;DHT22;38650;44.536;18.664;2022-12-18T23:08:44;1.70;99.90
52765;DHT22;38650;44.536;18.664;2022-12-18T23:11:11;1.70;99.90
52765;DHT22;38650;44.536;18.664;2022-12-18T23:13:37;1.70;99.90
52765;DHT22;38650;44.536;18.664;2022-12-18T23:16:05;1.80;99.90
52765;DHT22;38650;44.536;18.664;2022-12-18T23:18:31;1.80;99.90
52765;DHT22;38650;44.536;18.664;2022-12-18T23:21:02;1.80;99.90
52765;DHT22;38650;44.536;18.664;2022-12-18T23:23:28;1.80;99.90
52765;DHT22;38650;44.536;18.664;2022-12-18T23:26:05;1.80;99.90
52765;DHT22;38650;44.536;18.664;2022-12-18T23:28:32;1.70;99.90
52765;DHT22;38650;44.536;18.664;2022-12-18T23:31:04;1.70;99.90
52765;DHT22;38650;44.536;18.664;2022-12-18T23:33:30;1.70;99.90
52765;DHT22;38650;44.536;18.664;2022-12-18T23:36:00;1.70;99.90
52765;DHT22;38650;44.536;18.664;2022-12-18T23:38:26;1.70;99.90
52765;DHT22;38650;44.536;18.664;2022-12-18T23:40:51;1.60;99.90
52765;DHT22;38650;44.536;18.664;2022-12-18T23:43:17;1.50;99.90
52765;DHT22;38650;44.536;18.664;2022-12-18T23:45:43;1.40;99.90
52765;DHT22;38650;44.536;18.664;2022-12-18T23:48:10;1.40;99.90
52765;DHT22;38650;44.536;18.664;2022-12-18T23:50:35;1.20;99.90
52765;DHT22;38650;44.536;18.664;2022-12-18T23:53:01;1.30;99.90
52765;DHT22;38650;44.536;18.664;2022-12-18T23:55:27;1.30;99.90
52765;DHT22;38650;44.536;18.664;2022-12-18T23:57:52;1.40;99.90
